Time;durP1;ratioP1;P1;durP2;ratioP2;P2;SDS_P1;SDS_P2;PMS_P1;PMS_P2;Temp;Humidity;BMP_temperature;BMP_pressure;BME280_temperature;BME280_humidity;BME280_pressure;Samples;Min_cycle;Max_cycle;Signal;HPM_P1;HPM_P2
2020/12/27 00:00:51;;;;;;;0.10;0.00;;;;;;;5.59;100.00;96536.44;4862498;29;20053;-89
2020/12/27 00:03:54;;;;;;;0.10;0.00;;;;;;;5.61;100.00;96509.06;4862602;29;20181;-88
2020/12/27 00:08:00;;;;;;;1.75;0.43;;;;;;;5.59;100.00;96508.84;4851645;29;20075;-90
2020/12/27 00:11:09;;;;;;;0.10;0.05;;;;;;;5.54;100.00;96456.50;4862551;29;20136;-90
2020/12/27 00:14:12;;;;;;;0.10;0.10;;;;;;;5.57;100.00;96449.91;4862472;29;20052;-89
2020/12/27 00:17:15;;;;;;;1.75;0.15;;;;;;;5.59;100.00;96448.13;4851363;29;20410;-88
2020/12/27 00:20:18;;;;;;;0.10;0.00;;;;;;;5.61;100.00;96417.25;4862300;29;20064;-90
2020/12/27 00:23:24;;;;;;;1.85;0.30;;;;;;;5.64;100.00;96405.16;4862310;29;20407;-88
2020/12/27 00:26:28;;;;;;;0.10;0.10;;;;;;;5.67;100.00;96388.31;4862137;29;20051;-92
2020/12/27 00:29:30;;;;;;;0.00;0.00;;;;;;;5.66;100.00;96370.25;4852099;29;20052;-86
2020/12/27 00:32:33;;;;;;;1.20;0.40;;;;;;;5.68;100.00;96340.09;4862563;29;20053;-91
2020/12/27 00:35:36;;;;;;;2.38;0.32;;;;;;;5.71;100.00;96330.75;4851438;29;20101;-85
2020/12/27 00:38:39;;;;;;;0.10;0.00;;;;;;;5.72;100.00;96307.41;4861742;29;20052;-88
2020/12/27 00:41:42;;;;;;;0.20;0.00;;;;;;;5.77;100.00;96298.28;4850672;29;20048;-89
2020/12/27 00:44:44;;;;;;;2.50;0.82;;;;;;;5.77;100.00;96273.44;4868793;29;20452;-87
2020/12/27 00:47:47;;;;;;;0.10;0.10;;;;;;;5.77;100.00;96259.63;4869100;29;20177;-89
2020/12/27 00:50:50;;;;;;;0.10;0.10;;;;;;;5.77;100.00;96242.31;4869447;29;20092;-88
2020/12/27 00:53:54;;;;;;;0.10;0.00;;;;;;;5.77;100.00;96232.03;4869327;29;20052;-88
2020/12/27 00:56:57;;;;;;;0.55;0.10;;;;;;;5.77;100.00;96232.03;4869117;29;20056;-89
2020/12/27 01:00:00;;;;;;;1.13;0.63;;;;;;;5.77;100.00;96203.66;4869367;29;20068;-90
2020/12/27 01:03:03;;;;;;;0.30;0.30;;;;;;;5.75;100.00;96198.69;4867855;29;20064;-87
2020/12/27 01:06:06;;;;;;;0.10;0.10;;;;;;;5.77;100.00;96187.09;4869664;29;20096;-92
2020/12/27 01:09:09;;;;;;;1.58;0.15;;;;;;;5.75;100.00;96157.28;4869517;29;20052;-91
2020/12/27 01:12:12;;;;;;;0.10;0.10;;;;;;;5.75;100.00;96140.72;4869304;29;20060;-92
2020/12/27 01:15:15;;;;;;;0.10;0.00;;;;;;;5.74;100.00;96128.19;4869130;29;20055;-90
2020/12/27 01:18:18;;;;;;;0.65;0.10;;;;;;;5.74;100.00;96108.13;4869016;29;20124;-90
2020/12/27 01:21:25;;;;;;;1.05;0.35;;;;;;;5.74;100.00;96086.78;4880305;29;20096;-89
2020/12/27 01:24:28;;;;;;;0.10;0.10;;;;;;;5.74;100.00;96063.97;4868931;29;20529;-90
2020/12/27 01:27:30;;;;;;;0.40;0.30;;;;;;;5.74;100.00;96067.44;4868625;29;20052;-89
2020/12/27 01:30:33;;;;;;;0.10;0.00;;;;;;;5.72;100.00;96047.91;4880255;29;20093;-92
2020/12/27 01:33:36;;;;;;;0.10;0.00;;;;;;;5.71;100.00;96027.13;4868908;29;20040;-91
2020/12/27 01:36:40;;;;;;;3.25;0.13;;;;;;;5.71;100.00;96013.34;4868715;29;20044;-89
2020/12/27 01:39:43;;;;;;;0.30;0.30;;;;;;;5.69;100.00;95993.81;4868909;29;20112;-91
2020/12/27 01:42:57;;;;;;;0.40;0.40;;;;;;;5.71;100.00;95994.00;4868771;29;20109;-89
2020/12/27 01:45:59;;;;;;;0.10;0.00;;;;;;;5.75;100.00;95986.13;4880325;29;20517;-89
2020/12/27 01:49:05;;;;;;;0.10;0.10;;;;;;;5.78;100.00;95979.53;4883419;29;20547;-90
2020/12/27 01:52:08;;;;;;;4.95;0.52;;;;;;;5.78;100.00;95959.47;4883117;29;20043;-88
2020/12/27 01:55:12;;;;;;;0.30;0.20;;;;;;;5.83;100.00;95937.25;4882904;29;20168;-88
2020/12/27 01:58:20;;;;;;;0.20;0.10;;;;;;;5.81;100.00;95937.03;4882960;29;20052;-88
2020/12/27 02:01:23;;;;;;;10.45;0.20;;;;;;;5.84;100.00;95938.78;4882974;29;20052;-88
2020/12/27 02:04:26;;;;;;;0.30;0.10;;;;;;;5.85;100.00;95928.44;4882782;29;20056;-88
2020/12/27 02:07:29;;;;;;;0.10;0.10;;;;;;;5.84;100.00;95916.69;4882557;29;20105;-90
2020/12/27 02:10:32;;;;;;;8.38;0.28;;;;;;;5.85;100.00;95892.56;4882865;29;20200;-88
2020/12/27 02:13:46;;;;;;;1.85;0.50;;;;;;;5.85;100.00;95901.59;4882761;29;20044;-87
2020/12/27 02:16:49;;;;;;;2.53;0.40;;;;;;;5.83;100.00;95876.50;4882517;29;20097;-88
2020/12/27 02:19:51;;;;;;;0.30;0.30;;;;;;;5.79;100.00;95865.06;4882766;29;20071;-89
2020/12/27 02:22:54;;;;;;;0.20;0.20;;;;;;;5.75;100.00;95847.38;4883059;29;20052;-88
2020/12/27 02:25:57;;;;;;;0.10;0.00;;;;;;;5.74;100.00;95846.63;4882430;29;20044;-89
2020/12/27 02:29:00;;;;;;;1.00;0.30;;;;;;;5.73;100.00;95850.69;4882605;29;20093;-89
2020/12/27 02:32:03;;;;;;;0.10;0.10;;;;;;;5.76;100.00;95838.53;4882878;29;20116;-89
2020/12/27 02:35:06;;;;;;;0.10;0.00;;;;;;;5.74;100.00;95857.66;4882462;29;20055;-90
2020/12/27 02:38:09;;;;;;;2.80;0.63;;;;;;;5.74;100.00;95852.16;4882536;29;20096;-91
2020/12/27 02:41:14;;;;;;;0.95;0.20;;;;;;;5.72;100.00;95873.28;4882212;29;20099;-90
2020/12/27 02:44:18;;;;;;;0.00;0.00;;;;;;;5.68;100.00;95859.84;4876836;29;20066;-90
2020/12/27 02:47:21;;;;;;;0.10;0.08;;;;;;;5.62;100.00;95844.69;4872242;29;20114;-90
2020/12/27 02:50:23;;;;;;;0.10;0.00;;;;;;;5.49;100.00;95825.44;4873667;29;20120;-91
2020/12/27 02:53:26;;;;;;;0.10;0.00;;;;;;;5.36;100.00;95823.50;4872376;29;20044;-90
2020/12/27 02:56:29;;;;;;;0.10;0.00;;;;;;;5.23;100.00;95837.34;4872131;29;20044;-88
2020/12/27 02:59:32;;;;;;;0.10;0.00;;;;;;;5.11;100.00;95844.41;4870848;29;20048;-89
2020/12/27 03:02:35;;;;;;;0.10;0.10;;;;;;;5.02;100.00;95833.84;4870947;29;20048;-85
2020/12/27 03:05:37;;;;;;;0.10;0.00;;;;;;;4.95;100.00;95834.50;4871218;29;20048;-91
2020/12/27 03:08:41;;;;;;;0.10;0.00;;;;;;;4.87;100.00;95828.16;4871336;29;20044;-88
2020/12/27 03:11:44;;;;;;;0.10;0.10;;;;;;;4.80;100.00;95829.56;4871282;29;20055;-88
2020/12/27 03:14:46;;;;;;;0.10;0.00;;;;;;;4.75;100.00;95826.91;4871018;29;20048;-89
2020/12/27 03:17:49;;;;;;;6.32;0.20;;;;;;;4.69;100.00;95807.78;4869137;29;20097;-81
2020/12/27 03:20:52;;;;;;;0.10;0.10;;;;;;;4.65;100.00;95787.31;4880308;29;20096;-80
2020/12/27 03:23:55;;;;;;;0.10;0.10;;;;;;;4.60;100.00;95762.13;4881019;29;20074;-80
2020/12/27 03:26:57;;;;;;;0.10;0.00;;;;;;;4.52;100.00;95750.28;4880570;29;20048;-82
2020/12/27 03:30:00;;;;;;;0.10;0.10;;;;;;;4.48;100.00;95743.63;4880756;29;20048;-81
2020/12/27 03:33:04;;;;;;;0.03;0.00;;;;;;;4.47;100.00;95737.38;4880635;29;20497;-80
2020/12/27 03:36:06;;;;;;;0.10;0.10;;;;;;;4.47;100.00;95737.38;4880592;29;20040;-80
2020/12/27 03:39:09;;;;;;;0.10;0.10;;;;;;;4.49;100.00;95734.06;4879373;29;20583;-81
2020/12/27 03:42:12;;;;;;;0.10;0.00;;;;;;;4.47;100.00;95726.34;4880445;29;20055;-81
2020/12/27 03:45:15;;;;;;;0.10;0.10;;;;;;;4.46;100.00;95722.09;4849938;29;20048;-81
2020/12/27 03:48:17;;;;;;;0.10;0.10;;;;;;;4.45;100.00;95706.88;4850291;29;20049;-79
2020/12/27 03:51:20;;;;;;;0.43;0.30;;;;;;;4.44;100.00;95716.41;4861857;29;20552;-80
2020/12/27 03:54:23;;;;;;;0.20;0.20;;;;;;;4.43;100.00;95698.41;4861627;29;20094;-79
2020/12/27 03:57:26;;;;;;;0.22;0.22;;;;;;;4.42;100.00;95672.13;4861334;29;20052;-81
2020/12/27 04:00:30;;;;;;;0.10;0.00;;;;;;;4.41;100.00;95665.16;4861529;29;20102;-80
2020/12/27 04:03:33;;;;;;;0.10;0.00;;;;;;;4.45;100.00;95654.53;4849939;29;20044;-81
2020/12/27 04:06:36;;;;;;;0.10;0.00;;;;;;;4.51;100.00;95668.16;4861483;29;20064;-81
2020/12/27 04:09:39;;;;;;;1.35;0.10;;;;;;;4.63;100.00;95694.19;4849898;29;20074;-80
2020/12/27 04:12:42;;;;;;;4.57;1.00;;;;;;;4.65;100.00;95715.69;4861196;29;20048;-81
2020/12/27 04:15:46;;;;;;;5.18;0.30;;;;;;;4.55;100.00;95712.66;4861559;29;20081;-80
2020/12/27 04:18:48;;;;;;;0.13;0.10;;;;;;;4.46;100.00;95708.34;4861092;29;20463;-80
2020/12/27 04:21:52;;;;;;;0.10;0.10;;;;;;;4.39;100.00;95714.53;4861174;29;20452;-81
2020/12/27 04:24:55;;;;;;;11.10;0.43;;;;;;;4.32;100.00;95697.91;4861366;29;20041;-80
2020/12/27 04:27:58;;;;;;;0.10;0.00;;;;;;;4.23;100.00;95696.34;4861097;29;20088;-81
2020/12/27 04:31:01;;;;;;;0.10;0.10;;;;;;;4.14;100.00;95699.53;4861321;29;20052;-82
2020/12/27 04:34:04;;;;;;;0.10;0.10;;;;;;;4.03;100.00;95712.81;4849576;29;20273;-83
2020/12/27 04:37:07;;;;;;;0.13;0.13;;;;;;;3.90;100.00;95708.06;4860903;29;20144;-81
2020/12/27 04:40:10;;;;;;;0.10;0.10;;;;;;;3.79;100.00;95683.50;4861012;29;20101;-81
2020/12/27 04:43:14;;;;;;;0.10;0.00;;;;;;;3.74;100.00;95676.13;4865781;29;20116;-81
2020/12/27 04:46:17;;;;;;;6.13;0.30;;;;;;;3.68;100.00;95689.25;4879352;29;20513;-81
2020/12/27 04:49:21;;;;;;;0.17;0.10;;;;;;;3.59;100.00;95684.19;4867742;29;20140;-81
2020/12/27 04:52:28;;;;;;;0.10;0.10;;;;;;;3.58;100.00;95701.94;4879407;29;20088;-82
2020/12/27 04:55:31;;;;;;;0.75;0.17;;;;;;;3.50;100.00;95693.59;4867471;29;20567;-83
2020/12/27 04:58:34;;;;;;;1.02;0.35;;;;;;;3.46;100.00;95708.94;4879487;29;20100;-82
2020/12/27 05:01:39;;;;;;;0.10;0.10;;;;;;;3.37;100.00;95706.59;4879083;29;20052;-80
2020/12/27 05:04:44;;;;;;;0.10;0.10;;;;;;;3.28;100.00;95701.53;4878724;29;20040;-79
2020/12/27 05:07:47;;;;;;;2.35;0.45;;;;;;;3.23;100.00;95708.59;4879283;29;20048;-80
2020/12/27 05:10:51;;;;;;;5.38;0.30;;;;;;;3.23;100.00;95696.88;4878809;29;20083;-80
2020/12/27 05:13:54;;;;;;;0.10;0.10;;;;;;;3.29;100.00;95694.78;4878780;29;20057;-80
2020/12/27 05:16:58;;;;;;;0.10;0.10;;;;;;;3.27;100.00;95689.06;4878887;29;20654;-81
2020/12/27 05:20:12;;;;;;;0.10;0.10;;;;;;;3.19;100.00;95686.19;4878618;29;20087;-83
2020/12/27 05:23:15;;;;;;;0.10;0.10;;;;;;;3.19;100.00;95677.94;4881040;29;20105;-85
2020/12/27 05:26:30;;;;;;;0.10;0.10;;;;;;;3.17;100.00;95687.97;4868273;29;20210;-86
2020/12/27 05:29:36;;;;;;;0.10;0.10;;;;;;;3.13;100.00;95690.31;4879960;29;20108;-86
2020/12/27 05:32:44;;;;;;;0.10;0.10;;;;;;;3.04;100.00;95678.47;4868362;29;20067;-86
2020/12/27 05:36:00;;;;;;;0.10;0.10;;;;;;;2.98;100.00;95671.59;4867230;29;20137;-87
2020/12/27 05:39:03;;;;;;;0.20;0.20;;;;;;;3.00;100.00;95675.28;4868395;29;20100;-86
2020/12/27 05:42:07;;;;;;;0.10;0.08;;;;;;;2.98;100.00;95669.59;4868748;29;20052;-86
2020/12/27 05:45:18;;;;;;;0.10;0.03;;;;;;;3.04;100.00;95675.72;4851171;29;20101;-86
2020/12/27 05:48:21;;;;;;;0.10;0.10;;;;;;;3.05;100.00;95676.47;4851833;29;20117;-87
2020/12/27 05:51:25;;;;;;;1.17;0.55;;;;;;;3.10;100.00;95677.63;4852116;29;20121;-88
2020/12/27 05:54:35;;;;;;;0.20;0.20;;;;;;;3.17;100.00;95671.47;4863799;29;20566;-85
2020/12/27 05:57:42;;;;;;;0.10;0.10;;;;;;;3.17;100.00;95674.22;4862743;29;20056;-88
2020/12/27 06:00:50;;;;;;;0.10;0.10;;;;;;;3.15;100.00;95676.78;4849061;29;20155;-84
2020/12/27 06:04:02;;;;;;;0.35;0.35;;;;;;;3.13;100.00;95679.31;4848741;29;20177;-84
2020/12/27 06:07:06;;;;;;;1.35;0.28;;;;;;;3.10;100.00;95666.63;4860227;29;20113;-84
2020/12/27 06:10:21;;;;;;;0.10;0.00;;;;;;;2.99;100.00;95671.06;4848764;29;20097;-83
2020/12/27 06:14:01;;;;;;;0.15;0.15;;;;;;;2.83;100.00;95666.59;4848064;29;20049;-83
2020/12/27 06:17:11;;;;;;;1.10;0.38;;;;;;;2.73;100.00;95668.25;4859621;29;20060;-84
2020/12/27 06:20:17;;;;;;;0.15;0.15;;;;;;;2.62;100.00;95678.69;4859967;29;20137;-83
2020/12/27 06:23:25;;;;;;;0.10;0.10;;;;;;;2.47;100.00;95668.19;4859740;29;20061;-83
2020/12/27 06:26:30;;;;;;;0.10;0.10;;;;;;;2.40;100.00;95673.56;4847922;29;20056;-84
2020/12/27 06:30:08;;;;;;;0.10;0.10;;;;;;;2.31;100.00;95669.19;4848339;29;20597;-83
2020/12/27 06:33:19;;;;;;;0.15;0.15;;;;;;;2.13;100.00;95669.94;4814194;29;20053;-84
2020/12/27 06:36:33;;;;;;;0.20;0.20;;;;;;;2.03;100.00;95668.84;4852070;29;20049;-83
2020/12/27 06:39:36;;;;;;;0.20;0.20;;;;;;;1.93;100.00;95681.44;4864139;29;20117;-83
2020/12/27 06:42:40;;;;;;;0.20;0.20;;;;;;;1.88;100.00;95682.28;4864151;29;20064;-82
2020/12/27 06:45:43;;;;;;;0.10;0.10;;;;;;;1.89;100.00;95683.75;4881762;29;20105;-84
2020/12/27 06:48:46;;;;;;;0.10;0.10;;;;;;;1.84;100.00;95677.06;4881611;29;20052;-84
2020/12/27 06:51:49;;;;;;;0.10;0.10;;;;;;;1.79;100.00;95682.63;4881660;29;20052;-84
2020/12/27 06:54:53;;;;;;;0.28;0.20;;;;;;;1.80;100.00;95689.63;4869973;29;20104;-82
2020/12/27 06:57:56;;;;;;;0.35;0.35;;;;;;;1.82;100.00;95692.59;4843902;29;20061;-82
2020/12/27 07:01:12;;;;;;;2.67;1.08;;;;;;;1.90;100.00;95699.69;4844161;29;20056;-81
2020/12/27 07:04:18;;;;;;;0.10;0.10;;;;;;;1.97;100.00;95698.38;4843444;29;20156;-82
2020/12/27 07:07:44;;;;;;;0.55;0.52;;;;;;;2.05;100.00;95694.50;4844005;29;20506;-83
2020/12/27 07:10:51;;;;;;;2.03;0.20;;;;;;;2.07;100.00;95693.97;4844057;29;20526;-81
2020/12/27 07:13:55;;;;;;;0.10;0.10;;;;;;;2.07;100.00;95694.72;4844812;29;20130;-85
2020/12/27 07:17:05;;;;;;;0.28;0.28;;;;;;;2.01;100.00;95685.84;4843808;29;20643;-84
2020/12/27 07:20:15;;;;;;;0.88;0.88;;;;;;;2.00;100.00;95689.09;4844438;29;20077;-85
2020/12/27 07:23:22;;;;;;;6.80;0.25;;;;;;;1.89;100.00;95686.50;4843976;29;20102;-82
2020/12/27 07:26:25;;;;;;;2.08;0.45;;;;;;;1.83;100.00;95688.56;4837805;29;20533;-82
2020/12/27 07:29:28;;;;;;;0.20;0.20;;;;;;;1.70;100.00;95693.97;4826699;29;20411;-82
2020/12/27 07:32:38;;;;;;;3.83;0.40;;;;;;;1.57;100.00;95689.16;4824644;29;20053;-82
2020/12/27 07:35:42;;;;;;;3.40;0.55;;;;;;;1.42;100.00;95678.59;4825119;29;20057;-82
2020/12/27 07:38:51;;;;;;;0.52;0.52;;;;;;;1.25;100.00;95675.31;4828727;29;20061;-82
2020/12/27 07:41:54;;;;;;;0.15;0.15;;;;;;;1.13;100.00;95690.38;4843365;29;20126;-82
2020/12/27 07:44:59;;;;;;;0.20;0.20;;;;;;;1.15;100.00;95696.06;4842947;29;20057;-82
2020/12/27 07:48:03;;;;;;;0.20;0.20;;;;;;;1.11;100.00;95692.88;4842958;29;20052;-82
2020/12/27 07:51:14;;;;;;;2.63;0.60;;;;;;;0.98;100.00;95690.03;4842869;29;20156;-81
2020/12/27 07:54:17;;;;;;;0.10;0.10;;;;;;;0.86;100.00;95690.66;4843484;29;20045;-80
2020/12/27 07:57:20;;;;;;;0.20;0.20;;;;;;;0.74;100.00;95692.75;4872063;29;20108;-80
2020/12/27 08:00:25;;;;;;;0.50;0.50;;;;;;;0.69;100.00;95696.28;4880115;29;20120;-80
2020/12/27 08:03:28;;;;;;;0.10;0.10;;;;;;;0.59;100.00;95692.38;4880038;29;20566;-80
2020/12/27 08:06:32;;;;;;;0.15;0.15;;;;;;;0.53;100.00;95694.41;4879862;29;20465;-80
2020/12/27 08:09:35;;;;;;;0.20;0.20;;;;;;;0.44;100.00;95686.53;4880088;29;20056;-80
2020/12/27 08:12:38;;;;;;;0.25;0.25;;;;;;;0.44;100.00;95686.53;4880202;29;20044;-80
2020/12/27 08:15:42;;;;;;;0.30;0.30;;;;;;;0.40;100.00;95683.31;4879898;29;20047;-82
2020/12/27 08:18:45;;;;;;;1.85;0.68;;;;;;;0.33;100.00;95686.59;4879803;29;20083;-82
2020/12/27 08:21:48;;;;;;;5.68;0.77;;;;;;;0.21;100.00;95688.69;4879884;29;20124;-86
2020/12/27 08:24:50;;;;;;;0.30;0.30;;;;;;;0.18;100.00;95691.69;4880044;29;20112;-80
2020/12/27 08:27:55;;;;;;;0.47;0.47;;;;;;;0.18;100.00;95697.91;4896993;29;20056;-80
2020/12/27 08:30:58;;;;;;;0.50;0.50;;;;;;;0.23;100.00;95699.88;4898307;29;20521;-80
2020/12/27 08:34:10;;;;;;;0.35;0.25;;;;;;;0.20;100.00;95681.72;4898237;29;20082;-80
2020/12/27 08:37:16;;;;;;;1.05;1.02;;;;;;;0.23;100.00;95696.38;4898569;29;20104;-81
2020/12/27 08:40:20;;;;;;;0.85;0.77;;;;;;;0.30;100.00;95693.09;4898241;29;20105;-81
2020/12/27 08:43:42;;;;;;;0.20;0.20;;;;;;;0.24;100.00;95679.44;4880316;29;20505;-81
2020/12/27 08:46:49;;;;;;;0.43;0.43;;;;;;;0.22;100.00;95681.22;4876849;29;20135;-80
2020/12/27 08:49:58;;;;;;;0.65;0.65;;;;;;;0.19;100.00;95674.78;4884977;29;20044;-81
2020/12/27 08:53:02;;;;;;;1.20;1.15;;;;;;;0.24;100.00;95684.19;4875739;29;20110;-80
2020/12/27 08:56:07;;;;;;;2.00;0.73;;;;;;;0.28;100.00;95679.19;4887105;29;20063;-80
2020/12/27 08:59:15;;;;;;;2.58;1.10;;;;;;;0.33;100.00;95675.66;4884884;29;20068;-80
2020/12/27 09:02:18;;;;;;;0.63;0.63;;;;;;;0.32;100.00;95672.19;4886515;29;20580;-80
2020/12/27 09:05:28;;;;;;;0.73;0.73;;;;;;;0.25;100.00;95674.72;4887088;29;20044;-80
2020/12/27 09:08:31;;;;;;;0.57;0.57;;;;;;;0.19;100.00;95676.78;4873196;29;20107;-80
2020/12/27 09:11:45;;;;;;;12.25;0.80;;;;;;;0.12;100.00;95678.06;4885047;29;20084;-80
2020/12/27 09:14:48;;;;;;;2.13;1.92;;;;;;;0.06;100.00;95676.59;4884069;29;20051;-81
2020/12/27 09:18:08;;;;;;;0.85;0.85;;;;;;;-0.01;100.00;95678.63;4884929;29;20467;-81
2020/12/27 09:21:12;;;;;;;3.05;1.13;;;;;;;-0.03;100.00;95670.19;4860165;29;20052;-80
2020/12/27 09:24:15;;;;;;;4.20;2.13;;;;;;;-0.02;100.00;95674.41;4867820;29;20048;-80
2020/12/27 09:27:24;;;;;;;3.83;1.85;;;;;;;-0.04;100.00;95665.97;4878686;29;20087;-80
2020/12/27 09:30:27;;;;;;;2.50;1.60;;;;;;;-0.03;100.00;95672.94;4878578;29;20593;-81
2020/12/27 09:33:35;;;;;;;3.50;2.53;;;;;;;-0.08;100.00;95670.22;4878465;29;20051;-82
2020/12/27 09:36:39;;;;;;;1.75;0.88;;;;;;;-0.10;100.00;95670.72;4878871;29;20504;-81
2020/12/27 09:39:45;;;;;;;1.08;1.02;;;;;;;-0.10;100.00;95664.53;4867111;29;20402;-81
2020/12/27 09:42:48;;;;;;;0.30;0.30;;;;;;;-0.02;100.00;95674.41;4878672;29;20114;-84
2020/12/27 09:45:51;;;;;;;5.57;0.70;;;;;;;0.10;100.00;95668.88;4878833;29;20100;-81
2020/12/27 09:48:54;;;;;;;0.55;0.55;;;;;;;0.10;100.00;95674.34;4878520;29;20406;-81
2020/12/27 09:52:13;;;;;;;0.40;0.40;;;;;;;0.09;100.00;95675.59;4878476;29;20052;-81
2020/12/27 09:55:16;;;;;;;1.65;0.82;;;;;;;0.11;100.00;95673.81;4878211;29;20077;-81
2020/12/27 09:58:19;;;;;;;0.22;0.22;;;;;;;0.12;100.00;95671.84;4838237;29;20053;-81
2020/12/27 10:01:26;;;;;;;2.30;0.55;;;;;;;0.20;100.00;95672.75;4837450;29;20124;-80
2020/12/27 10:04:30;;;;;;;2.47;0.30;;;;;;;0.36;100.00;95664.47;4837696;29;20798;-80
2020/12/27 10:07:33;;;;;;;0.50;0.50;;;;;;;0.44;100.00;95659.16;4839163;29;20126;-81
2020/12/27 10:10:36;;;;;;;0.32;0.32;;;;;;;0.43;100.00;95668.63;4841361;29;20116;-80
2020/12/27 10:13:39;;;;;;;1.00;0.63;;;;;;;0.41;100.00;95660.19;4861194;29;20087;-82
2020/12/27 10:16:42;;;;;;;0.68;0.50;;;;;;;0.41;100.00;95651.97;4881894;29;20067;-81
2020/12/27 10:19:44;;;;;;;0.13;0.13;;;;;;;0.58;100.00;95644.38;4870382;29;20685;-81
2020/12/27 10:22:47;;;;;;;11.45;0.50;;;;;;;0.63;100.00;95649.78;4881836;29;20566;-80
2020/12/27 10:25:50;;;;;;;0.30;0.30;;;;;;;0.82;100.00;95649.88;4881821;29;20048;-83
2020/12/27 10:28:53;;;;;;;2.35;0.85;;;;;;;0.88;100.00;95636.84;4870397;29;20044;-82
2020/12/27 10:32:01;;;;;;;1.50;0.40;;;;;;;0.97;100.00;95633.78;4882170;29;20406;-80
2020/12/27 10:35:04;;;;;;;5.63;0.57;;;;;;;1.05;100.00;95629.22;4881710;29;20048;-81
2020/12/27 10:38:07;;;;;;;0.63;0.40;;;;;;;1.10;100.00;95619.44;4881965;29;20068;-82
2020/12/27 10:41:10;;;;;;;0.30;0.30;;;;;;;1.14;100.00;95617.16;4870052;29;20098;-81
2020/12/27 10:44:13;;;;;;;10.00;2.05;;;;;;;1.12;100.00;95609.47;4874820;29;20075;-82
2020/12/27 10:47:15;;;;;;;8.77;1.42;;;;;;;1.08;100.00;95617.22;4881364;29;20052;-82
2020/12/27 10:50:18;;;;;;;16.42;4.68;;;;;;;1.05;100.00;95614.75;4881530;29;20071;-81
2020/12/27 10:53:21;;;;;;;4.18;1.65;;;;;;;1.05;100.00;95604.56;4880586;29;20096;-82
2020/12/27 10:56:24;;;;;;;6.68;1.90;;;;;;;1.09;100.00;95607.00;4881176;29;20146;-82
2020/12/27 10:59:27;;;;;;;0.85;0.65;;;;;;;1.18;100.00;95614.88;4881462;29;20064;-82
2020/12/27 11:02:29;;;;;;;9.93;1.23;;;;;;;1.26;100.00;95605.53;4881348;29;20092;-82
2020/12/27 11:05:32;;;;;;;3.72;1.05;;;;;;;1.31;100.00;95617.69;4880342;29;20108;-80
2020/12/27 11:08:35;;;;;;;0.13;0.13;;;;;;;1.30;100.00;95606.00;4881538;29;20048;-82
2020/12/27 11:11:39;;;;;;;4.07;0.43;;;;;;;1.36;100.00;95597.72;4880888;29;20048;-82
2020/12/27 11:14:42;;;;;;;4.57;0.50;;;;;;;1.43;100.00;95603.34;4881049;29;20052;-83
2020/12/27 11:17:45;;;;;;;2.65;0.63;;;;;;;1.49;100.00;95595.78;4879277;29;20044;-81
2020/12/27 11:20:48;;;;;;;2.15;1.15;;;;;;;1.56;100.00;95597.19;4880212;29;20052;-81
2020/12/27 11:23:50;;;;;;;0.70;0.70;;;;;;;1.65;100.00;95596.06;4879830;29;20068;-81
2020/12/27 11:26:54;;;;;;;3.25;1.75;;;;;;;1.71;100.00;95583.75;4880320;29;20100;-81
2020/12/27 11:29:57;;;;;;;6.45;1.67;;;;;;;1.82;100.00;95571.91;4880832;29;20071;-82
2020/12/27 11:33:00;;;;;;;6.25;1.85;;;;;;;1.92;100.00;95549.06;4879659;29;20100;-81
2020/12/27 11:36:03;;;;;;;3.53;1.17;;;;;;;1.96;100.00;95537.78;4880713;29;20052;-85
2020/12/27 11:39:05;;;;;;;1.45;0.95;;;;;;;2.02;100.00;95532.94;4879837;29;20055;-84
2020/12/27 11:42:08;;;;;;;6.32;0.75;;;;;;;2.03;100.00;95523.44;4880663;29;20068;-83
2020/12/27 11:45:11;;;;;;;30.77;1.98;;;;;;;2.07;100.00;95515.66;4861640;29;20510;-83
2020/12/27 11:48:14;;;;;;;6.43;0.85;;;;;;;2.15;100.00;95513.75;4849309;29;20113;-83
2020/12/27 11:51:17;;;;;;;0.98;0.32;;;;;;;2.18;100.00;95497.00;4862007;29;20068;-83
2020/12/27 11:54:20;;;;;;;3.85;0.75;;;;;;;2.21;100.00;95503.41;4861849;29;20064;-82
2020/12/27 11:57:23;;;;;;;3.80;0.50;;;;;;;2.14;100.00;95499.28;4850354;29;20116;-82
2020/12/27 12:00:26;;;;;;;1.85;0.70;;;;;;;2.22;100.00;95493.94;4850350;29;20052;-82
2020/12/27 12:03:28;;;;;;;1.25;0.25;;;;;;;2.26;100.00;95505.34;4861746;29;20133;-82
2020/12/27 12:06:31;;;;;;;0.50;0.40;;;;;;;2.26;100.00;95495.09;4861743;29;20060;-82
2020/12/27 12:09:34;;;;;;;1.35;0.60;;;;;;;2.29;100.00;95509.78;4850310;29;20065;-83
2020/12/27 12:12:37;;;;;;;2.63;1.15;;;;;;;2.30;100.00;95494.78;4861302;29;20044;-81
2020/12/27 12:15:42;;;;;;;4.18;0.38;;;;;;;2.28;100.00;95503.56;4850190;29;20074;-82
2020/12/27 12:18:45;;;;;;;1.48;0.52;;;;;;;2.31;100.00;95490.78;4861663;29;20045;-84
2020/12/27 12:21:52;;;;;;;0.65;0.32;;;;;;;2.38;100.00;95497.66;4861500;29;20541;-84
2020/12/27 12:24:55;;;;;;;1.05;0.65;;;;;;;2.47;100.00;95503.44;4861717;29;20129;-84
2020/12/27 12:27:58;;;;;;;0.20;0.20;;;;;;;2.50;100.00;95502.41;4862200;29;20051;-84
2020/12/27 12:31:01;;;;;;;0.20;0.20;;;;;;;2.51;100.00;95492.91;4886693;29;20073;-83
2020/12/27 12:34:04;;;;;;;1.45;1.20;;;;;;;2.53;100.00;95482.16;4898526;29;20054;-84
2020/12/27 12:37:06;;;;;;;0.25;0.25;;;;;;;2.52;100.00;95477.91;4898461;29;20043;-83
2020/12/27 12:40:09;;;;;;;8.77;1.55;;;;;;;2.56;100.00;95472.84;4887098;29;20067;-84
2020/12/27 12:43:12;;;;;;;0.28;0.28;;;;;;;2.58;100.00;95469.59;4882567;29;20513;-84
2020/12/27 12:46:15;;;;;;;0.38;0.30;;;;;;;2.57;100.00;95452.38;4868881;29;20056;-83
2020/12/27 12:49:18;;;;;;;6.32;0.63;;;;;;;2.61;100.00;95454.78;4868907;29;20120;-83
2020/12/27 12:52:20;;;;;;;0.63;0.20;;;;;;;2.64;100.00;95453.72;4880163;29;20056;-84
2020/12/27 12:55:23;;;;;;;0.10;0.10;;;;;;;2.57;100.00;95452.38;4868482;29;20083;-84
2020/12/27 12:58:26;;;;;;;11.45;0.90;;;;;;;2.50;100.00;95441.25;4842719;29;20094;-84
2020/12/27 13:01:29;;;;;;;1.48;0.47;;;;;;;2.54;100.00;95439.69;4842517;29;20411;-83
2020/12/27 13:04:32;;;;;;;14.50;0.90;;;;;;;2.56;100.00;95444.63;4842534;29;20053;-83
2020/12/27 13:07:35;;;;;;;8.38;1.52;;;;;;;2.58;100.00;95431.84;4843022;29;20103;-84
2020/12/27 13:10:39;;;;;;;5.50;0.65;;;;;;;2.61;100.00;95436.31;4842346;29;20061;-84
2020/12/27 13:13:42;;;;;;;0.32;0.32;;;;;;;2.63;100.00;95442.00;4842512;29;20053;-84
2020/12/27 13:16:45;;;;;;;1.13;0.70;;;;;;;2.68;100.00;95440.41;4842429;29;20053;-83
2020/12/27 13:19:47;;;;;;;1.17;0.35;;;;;;;2.67;100.00;95442.41;4842655;29;20053;-85
2020/12/27 13:22:50;;;;;;;0.38;0.38;;;;;;;2.70;100.00;95438.63;4842475;29;20098;-87
2020/12/27 13:25:53;;;;;;;1.55;0.32;;;;;;;2.68;100.00;95446.66;4842573;29;20053;-86
2020/12/27 13:28:56;;;;;;;0.45;0.45;;;;;;;2.62;100.00;95451.50;4842203;29;20048;-86
2020/12/27 13:31:59;;;;;;;1.13;0.35;;;;;;;2.60;100.00;95447.81;4842009;29;20068;-86
2020/12/27 13:35:03;;;;;;;0.45;0.45;;;;;;;2.59;100.00;95449.81;4842268;29;20044;-87
2020/12/27 13:38:05;;;;;;;3.67;0.43;;;;;;;2.71;100.00;95440.09;4842589;29;20045;-87
2020/12/27 13:41:08;;;;;;;0.93;0.77;;;;;;;2.83;100.00;95441.34;4842928;29;20094;-86
2020/12/27 13:44:11;;;;;;;14.63;0.75;;;;;;;2.87;100.00;95433.53;4848571;29;20113;-87
2020/12/27 13:47:14;;;;;;;0.65;0.55;;;;;;;2.90;100.00;95435.19;4848382;29;20518;-87
2020/12/27 13:50:17;;;;;;;4.40;0.60;;;;;;;2.92;100.00;95429.91;4849068;29;20102;-86
2020/12/27 13:53:20;;;;;;;0.30;0.10;;;;;;;2.89;100.00;95424.75;4848196;29;20519;-85
2020/12/27 13:56:27;;;;;;;11.15;0.60;;;;;;;2.82;100.00;95434.38;4863112;29;20504;-87
2020/12/27 13:59:29;;;;;;;10.18;2.05;;;;;;;2.78;100.00;95433.22;4884658;29;20052;-86
2020/12/27 14:02:32;;;;;;;2.75;0.30;;;;;;;2.74;100.00;95430.78;4885610;29;20052;-87
2020/12/27 14:05:35;;;;;;;0.13;0.13;;;;;;;2.70;100.00;95427.63;4885391;29;20048;-87
2020/12/27 14:08:38;;;;;;;0.50;0.43;;;;;;;2.67;100.00;95430.69;4885164;29;20465;-87
2020/12/27 14:11:41;;;;;;;0.47;0.47;;;;;;;2.67;100.00;95409.47;4885393;29;20100;-88
2020/12/27 14:14:44;;;;;;;0.95;0.73;;;;;;;2.62;100.00;95404.81;4885503;29;20068;-86
2020/12/27 14:17:47;;;;;;;9.35;0.68;;;;;;;2.59;100.00;95394.16;4875587;29;20056;-90
2020/12/27 14:20:49;;;;;;;1.23;0.17;;;;;;;2.54;100.00;95381.28;4862709;29;20045;-90
2020/12/27 14:23:53;;;;;;;4.97;0.68;;;;;;;2.44;100.00;95374.75;4863552;29;20076;-90
2020/12/27 14:26:55;;;;;;;2.60;0.65;;;;;;;2.37;100.00;95389.13;4867409;29;20052;-90